sensor_id;sensor_type;location;lat;lon;timestamp;P1;durP1;ratioP1;P2;durP2;ratioP2
15393;SDS011;7795;47.986;11.868;2023-07-20T00:01:13;4.60;;;3.37;;
15393;SDS011;7795;47.986;11.868;2023-07-20T00:03:39;6.20;;;3.13;;
15393;SDS011;7795;47.986;11.868;2023-07-20T00:06:04;6.70;;;3.20;;
15393;SDS011;7795;47.986;11.868;2023-07-20T00:08:32;4.63;;;2.60;;
15393;SDS011;7795;47.986;11.868;2023-07-20T00:10:57;5.30;;;2.87;;
15393;SDS011;7795;47.986;11.868;2023-07-20T00:13:23;4.30;;;2.40;;
15393;SDS011;7795;47.986;11.868;2023-07-20T00:15:49;4.83;;;3.30;;
15393;SDS011;7795;47.986;11.868;2023-07-20T00:18:15;3.67;;;2.53;;
15393;SDS011;7795;47.986;11.868;2023-07-20T00:20:41;4.60;;;2.93;;
15393;SDS011;7795;47.986;11.868;2023-07-20T00:23:07;4.60;;;3.10;;
15393;SDS011;7795;47.986;11.868;2023-07-20T00:25:34;4.57;;;3.33;;
15393;SDS011;7795;47.986;11.868;2023-07-20T00:28:00;5.37;;;3.17;;
15393;SDS011;7795;47.986;11.868;2023-07-20T00:30:26;3.73;;;2.70;;
15393;SDS011;7795;47.986;11.868;2023-07-20T00:32:52;5.00;;;3.00;;
15393;SDS011;7795;47.986;11.868;2023-07-20T00:35:18;3.97;;;2.83;;
15393;SDS011;7795;47.986;11.868;2023-07-20T00:37:43;4.13;;;2.50;;
15393;SDS011;7795;47.986;11.868;2023-07-20T00:40:09;4.10;;;2.60;;
15393;SDS011;7795;47.986;11.868;2023-07-20T00:42:37;3.67;;;2.57;;
15393;SDS011;7795;47.986;11.868;2023-07-20T00:45:03;4.37;;;2.67;;
15393;SDS011;7795;47.986;11.868;2023-07-20T00:47:30;3.97;;;2.73;;
15393;SDS011;7795;47.986;11.868;2023-07-20T00:49:56;3.43;;;2.77;;
15393;SDS011;7795;47.986;11.868;2023-07-20T00:52:21;4.03;;;3.23;;
15393;SDS011;7795;47.986;11.868;2023-07-20T00:54:50;4.03;;;2.63;;
15393;SDS011;7795;47.986;11.868;2023-07-20T00:57:17;2.70;;;2.50;;
15393;SDS011;7795;47.986;11.868;2023-07-20T00:59:45;4.37;;;3.17;;
15393;SDS011;7795;47.986;11.868;2023-07-20T01:02:11;3.47;;;2.60;;
15393;SDS011;7795;47.986;11.868;2023-07-20T01:04:37;5.77;;;2.87;;
15393;SDS011;7795;47.986;11.868;2023-07-20T01:07:06;2.87;;;2.30;;
15393;SDS011;7795;47.986;11.868;2023-07-20T01:09:39;2.90;;;2.60;;
15393;SDS011;7795;47.986;11.868;2023-07-20T01:12:12;4.63;;;2.70;;
15393;SDS011;7795;47.986;11.868;2023-07-20T01:14:42;2.83;;;2.37;;
15393;SDS011;7795;47.986;11.868;2023-07-20T01:17:09;5.80;;;2.70;;
15393;SDS011;7795;47.986;11.868;2023-07-20T01:19:35;3.97;;;2.97;;
15393;SDS011;7795;47.986;11.868;2023-07-20T01:22:02;4.87;;;2.67;;
15393;SDS011;7795;47.986;11.868;2023-07-20T01:24:57;2.37;;;1.97;;
15393;SDS011;7795;47.986;11.868;2023-07-20T01:27:41;3.37;;;2.47;;
15393;SDS011;7795;47.986;11.868;2023-07-20T01:30:35;5.73;;;2.43;;
15393;SDS011;7795;47.986;11.868;2023-07-20T01:33:22;5.23;;;2.60;;
15393;SDS011;7795;47.986;11.868;2023-07-20T01:35:52;2.80;;;2.00;;
15393;SDS011;7795;47.986;11.868;2023-07-20T01:38:19;3.43;;;2.30;;
15393;SDS011;7795;47.986;11.868;2023-07-20T01:40:46;3.30;;;2.10;;
15393;SDS011;7795;47.986;11.868;2023-07-20T01:43:13;4.27;;;2.10;;
15393;SDS011;7795;47.986;11.868;2023-07-20T01:45:39;6.43;;;2.17;;
15393;SDS011;7795;47.986;11.868;2023-07-20T01:48:04;2.93;;;2.30;;
15393;SDS011;7795;47.986;11.868;2023-07-20T01:50:32;2.97;;;2.07;;
15393;SDS011;7795;47.986;11.868;2023-07-20T01:52:59;3.63;;;2.27;;
15393;SDS011;7795;47.986;11.868;2023-07-20T01:55:25;3.30;;;2.20;;
15393;SDS011;7795;47.986;11.868;2023-07-20T01:57:51;3.53;;;2.17;;
15393;SDS011;7795;47.986;11.868;2023-07-20T02:00:17;2.83;;;2.00;;
15393;SDS011;7795;47.986;11.868;2023-07-20T02:02:46;2.77;;;1.90;;
15393;SDS011;7795;47.986;11.868;2023-07-20T02:05:12;3.93;;;2.43;;
15393;SDS011;7795;47.986;11.868;2023-07-20T02:07:39;3.53;;;2.07;;
15393;SDS011;7795;47.986;11.868;2023-07-20T02:10:05;3.23;;;2.03;;
15393;SDS011;7795;47.986;11.868;2023-07-20T02:12:31;2.63;;;2.40;;
15393;SDS011;7795;47.986;11.868;2023-07-20T02:14:57;4.53;;;2.20;;
15393;SDS011;7795;47.986;11.868;2023-07-20T02:17:23;2.77;;;2.40;;
15393;SDS011;7795;47.986;11.868;2023-07-20T02:19:50;3.47;;;2.30;;
15393;SDS011;7795;47.986;11.868;2023-07-20T02:22:16;3.43;;;2.40;;
15393;SDS011;7795;47.986;11.868;2023-07-20T02:24:43;4.97;;;2.20;;
15393;SDS011;7795;47.986;11.868;2023-07-20T02:27:09;2.10;;;1.90;;
15393;SDS011;7795;47.986;11.868;2023-07-20T02:29:34;3.63;;;2.07;;
15393;SDS011;7795;47.986;11.868;2023-07-20T02:32:01;2.40;;;2.13;;
15393;SDS011;7795;47.986;11.868;2023-07-20T02:34:26;5.37;;;2.33;;
15393;SDS011;7795;47.986;11.868;2023-07-20T02:36:52;3.43;;;2.53;;
15393;SDS011;7795;47.986;11.868;2023-07-20T02:39:18;3.47;;;2.47;;
15393;SDS011;7795;47.986;11.868;2023-07-20T02:41:45;3.60;;;2.40;;
15393;SDS011;7795;47.986;11.868;2023-07-20T02:44:11;6.50;;;3.00;;
15393;SDS011;7795;47.986;11.868;2023-07-20T02:46:37;4.37;;;2.53;;
15393;SDS011;7795;47.986;11.868;2023-07-20T02:49:03;6.27;;;2.57;;
15393;SDS011;7795;47.986;11.868;2023-07-20T02:51:29;5.70;;;2.23;;
15393;SDS011;7795;47.986;11.868;2023-07-20T02:53:55;4.93;;;2.73;;
15393;SDS011;7795;47.986;11.868;2023-07-20T02:56:20;2.43;;;2.00;;
15393;SDS011;7795;47.986;11.868;2023-07-20T02:58:49;5.20;;;2.87;;
15393;SDS011;7795;47.986;11.868;2023-07-20T03:01:15;2.67;;;2.30;;
15393;SDS011;7795;47.986;11.868;2023-07-20T03:03:41;4.13;;;2.50;;
15393;SDS011;7795;47.986;11.868;2023-07-20T03:06:10;4.00;;;2.67;;
15393;SDS011;7795;47.986;11.868;2023-07-20T03:08:36;3.70;;;2.10;;
15393;SDS011;7795;47.986;11.868;2023-07-20T03:11:02;4.33;;;2.57;;
15393;SDS011;7795;47.986;11.868;2023-07-20T03:13:28;3.63;;;2.27;;
15393;SDS011;7795;47.986;11.868;2023-07-20T03:15:56;2.23;;;2.03;;
15393;SDS011;7795;47.986;11.868;2023-07-20T03:18:22;4.07;;;2.40;;
15393;SDS011;7795;47.986;11.868;2023-07-20T03:20:48;5.13;;;2.37;;
15393;SDS011;7795;47.986;11.868;2023-07-20T03:23:14;5.43;;;2.40;;
15393;SDS011;7795;47.986;11.868;2023-07-20T03:25:40;3.50;;;2.10;;
15393;SDS011;7795;47.986;11.868;2023-07-20T03:28:06;4.17;;;2.57;;
15393;SDS011;7795;47.986;11.868;2023-07-20T03:30:32;3.33;;;2.33;;
15393;SDS011;7795;47.986;11.868;2023-07-20T03:32:59;3.93;;;2.47;;
15393;SDS011;7795;47.986;11.868;2023-07-20T03:35:25;3.93;;;2.07;;
15393;SDS011;7795;47.986;11.868;2023-07-20T03:37:51;3.93;;;2.30;;
15393;SDS011;7795;47.986;11.868;2023-07-20T03:40:17;3.97;;;2.03;;
15393;SDS011;7795;47.986;11.868;2023-07-20T03:42:42;2.00;;;1.70;;
15393;SDS011;7795;47.986;11.868;2023-07-20T03:45:08;3.00;;;1.70;;
15393;SDS011;7795;47.986;11.868;2023-07-20T03:47:34;3.13;;;2.00;;
15393;SDS011;7795;47.986;11.868;2023-07-20T03:50:02;2.53;;;1.73;;
15393;SDS011;7795;47.986;11.868;2023-07-20T03:52:28;2.47;;;1.70;;
15393;SDS011;7795;47.986;11.868;2023-07-20T03:54:54;2.20;;;1.73;;
15393;SDS011;7795;47.986;11.868;2023-07-20T03:57:20;4.23;;;1.70;;
15393;SDS011;7795;47.986;11.868;2023-07-20T03:59:46;3.43;;;1.70;;
15393;SDS011;7795;47.986;11.868;2023-07-20T04:02:11;2.33;;;1.30;;
15393;SDS011;7795;47.986;11.868;2023-07-20T04:04:37;3.00;;;1.33;;
15393;SDS011;7795;47.986;11.868;2023-07-20T04:07:04;2.03;;;1.60;;
15393;SDS011;7795;47.986;11.868;2023-07-20T04:09:31;3.00;;;1.53;;
15393;SDS011;7795;47.986;11.868;2023-07-20T04:11:57;2.90;;;1.33;;
15393;SDS011;7795;47.986;11.868;2023-07-20T04:14:23;3.43;;;1.67;;
15393;SDS011;7795;47.986;11.868;2023-07-20T04:16:48;3.73;;;1.50;;
15393;SDS011;7795;47.986;11.868;2023-07-20T04:19:16;2.00;;;1.60;;
15393;SDS011;7795;47.986;11.868;2023-07-20T04:21:43;3.20;;;1.43;;
15393;SDS011;7795;47.986;11.868;2023-07-20T04:24:10;2.97;;;1.43;;
15393;SDS011;7795;47.986;11.868;2023-07-20T04:26:36;4.40;;;1.90;;
15393;SDS011;7795;47.986;11.868;2023-07-20T04:29:02;3.37;;;1.40;;
15393;SDS011;7795;47.986;11.868;2023-07-20T04:31:28;3.63;;;1.40;;
15393;SDS011;7795;47.986;11.868;2023-07-20T04:33:55;2.83;;;1.70;;
15393;SDS011;7795;47.986;11.868;2023-07-20T04:36:21;1.97;;;1.57;;
15393;SDS011;7795;47.986;11.868;2023-07-20T04:38:46;3.53;;;1.73;;
15393;SDS011;7795;47.986;11.868;2023-07-20T04:41:14;3.17;;;1.90;;
15393;SDS011;7795;47.986;11.868;2023-07-20T04:43:40;3.40;;;1.97;;
15393;SDS011;7795;47.986;11.868;2023-07-20T04:46:07;3.80;;;1.97;;
15393;SDS011;7795;47.986;11.868;2023-07-20T04:48:32;4.27;;;2.00;;
15393;SDS011;7795;47.986;11.868;2023-07-20T04:50:58;3.03;;;1.70;;
15393;SDS011;7795;47.986;11.868;2023-07-20T04:53:24;4.57;;;1.93;;
15393;SDS011;7795;47.986;11.868;2023-07-20T04:55:50;2.20;;;1.60;;
15393;SDS011;7795;47.986;11.868;2023-07-20T04:58:18;2.33;;;1.30;;
15393;SDS011;7795;47.986;11.868;2023-07-20T05:00:44;3.83;;;1.70;;
15393;SDS011;7795;47.986;11.868;2023-07-20T05:03:10;3.03;;;1.70;;
15393;SDS011;7795;47.986;11.868;2023-07-20T05:05:35;2.77;;;1.40;;
15393;SDS011;7795;47.986;11.868;2023-07-20T05:08:02;2.53;;;1.80;;
15393;SDS011;7795;47.986;11.868;2023-07-20T05:10:29;3.33;;;1.67;;
15393;SDS011;7795;47.986;11.868;2023-07-20T05:12:54;3.67;;;1.60;;
15393;SDS011;7795;47.986;11.868;2023-07-20T05:15:21;2.33;;;1.50;;
15393;SDS011;7795;47.986;11.868;2023-07-20T05:17:47;2.77;;;1.57;;
15393;SDS011;7795;47.986;11.868;2023-07-20T05:20:13;1.97;;;1.20;;
15393;SDS011;7795;47.986;11.868;2023-07-20T05:22:39;2.90;;;1.47;;
15393;SDS011;7795;47.986;11.868;2023-07-20T05:25:06;1.33;;;1.23;;
15393;SDS011;7795;47.986;11.868;2023-07-20T05:27:33;4.43;;;1.57;;
15393;SDS011;7795;47.986;11.868;2023-07-20T05:29:59;2.57;;;1.60;;
15393;SDS011;7795;47.986;11.868;2023-07-20T05:32:26;2.33;;;1.50;;
15393;SDS011;7795;47.986;11.868;2023-07-20T05:34:52;3.87;;;1.87;;
15393;SDS011;7795;47.986;11.868;2023-07-20T05:37:19;2.13;;;1.60;;
15393;SDS011;7795;47.986;11.868;2023-07-20T05:39:44;2.73;;;1.57;;
15393;SDS011;7795;47.986;11.868;2023-07-20T05:42:10;1.80;;;1.30;;
15393;SDS011;7795;47.986;11.868;2023-07-20T05:44:36;2.13;;;1.37;;
15393;SDS011;7795;47.986;11.868;2023-07-20T05:47:02;2.30;;;1.50;;
15393;SDS011;7795;47.986;11.868;2023-07-20T05:49:29;4.67;;;2.30;;
15393;SDS011;7795;47.986;11.868;2023-07-20T05:51:55;5.13;;;1.80;;
15393;SDS011;7795;47.986;11.868;2023-07-20T05:54:22;2.33;;;1.80;;
15393;SDS011;7795;47.986;11.868;2023-07-20T05:56:49;3.07;;;1.60;;
15393;SDS011;7795;47.986;11.868;2023-07-20T05:59:15;2.93;;;1.50;;
15393;SDS011;7795;47.986;11.868;2023-07-20T06:01:41;2.50;;;2.00;;
15393;SDS011;7795;47.986;11.868;2023-07-20T06:04:08;3.17;;;1.60;;
15393;SDS011;7795;47.986;11.868;2023-07-20T06:06:35;2.10;;;1.40;;
15393;SDS011;7795;47.986;11.868;2023-07-20T06:09:01;1.97;;;1.73;;
15393;SDS011;7795;47.986;11.868;2023-07-20T06:11:32;2.80;;;1.70;;
15393;SDS011;7795;47.986;11.868;2023-07-20T06:13:59;2.53;;;1.50;;
15393;SDS011;7795;47.986;11.868;2023-07-20T06:16:25;2.67;;;1.80;;
15393;SDS011;7795;47.986;11.868;2023-07-20T06:18:51;3.03;;;2.10;;
15393;SDS011;7795;47.986;11.868;2023-07-20T06:21:16;3.00;;;1.43;;
15393;SDS011;7795;47.986;11.868;2023-07-20T06:23:43;3.10;;;1.60;;
15393;SDS011;7795;47.986;11.868;2023-07-20T06:26:09;2.83;;;1.80;;
15393;SDS011;7795;47.986;11.868;2023-07-20T06:28:35;3.90;;;2.10;;
15393;SDS011;7795;47.986;11.868;2023-07-20T06:31:01;2.70;;;1.90;;
15393;SDS011;7795;47.986;11.868;2023-07-20T06:33:27;2.67;;;1.63;;
15393;SDS011;7795;47.986;11.868;2023-07-20T06:35:53;1.80;;;1.60;;
15393;SDS011;7795;47.986;11.868;2023-07-20T06:38:19;2.87;;;1.47;;
15393;SDS011;7795;47.986;11.868;2023-07-20T06:40:47;7.90;;;1.73;;
15393;SDS011;7795;47.986;11.868;2023-07-20T06:43:12;8.87;;;2.07;;
15393;SDS011;7795;47.986;11.868;2023-07-20T06:45:38;11.30;;;2.93;;
15393;SDS011;7795;47.986;11.868;2023-07-20T06:48:04;11.70;;;2.27;;
15393;SDS011;7795;47.986;11.868;2023-07-20T06:50:30;12.43;;;2.90;;
15393;SDS011;7795;47.986;11.868;2023-07-20T06:52:56;5.97;;;2.33;;
15393;SDS011;7795;47.986;11.868;2023-07-20T06:55:22;16.63;;;2.80;;
15393;SDS011;7795;47.986;11.868;2023-07-20T06:57:49;10.13;;;2.60;;
15393;SDS011;7795;47.986;11.868;2023-07-20T07:00:15;5.00;;;2.20;;
15393;SDS011;7795;47.986;11.868;2023-07-20T07:02:41;7.40;;;1.67;;
15393;SDS011;7795;47.986;11.868;2023-07-20T07:05:07;4.90;;;1.80;;
15393;SDS011;7795;47.986;11.868;2023-07-20T07:07:33;11.07;;;2.63;;
15393;SDS011;7795;47.986;11.868;2023-07-20T07:09:59;6.97;;;2.23;;
15393;SDS011;7795;47.986;11.868;2023-07-20T07:12:26;22.23;;;2.60;;
15393;SDS011;7795;47.986;11.868;2023-07-20T07:14:53;9.37;;;2.40;;
15393;SDS011;7795;47.986;11.868;2023-07-20T07:17:19;6.13;;;2.00;;
15393;SDS011;7795;47.986;11.868;2023-07-20T07:19:44;5.67;;;2.10;;
15393;SDS011;7795;47.986;11.868;2023-07-20T07:22:10;7.07;;;2.10;;
15393;SDS011;7795;47.986;11.868;2023-07-20T07:24:36;10.10;;;3.10;;
15393;SDS011;7795;47.986;11.868;2023-07-20T07:27:02;6.63;;;2.33;;
15393;SDS011;7795;47.986;11.868;2023-07-20T07:29:29;10.23;;;3.10;;
15393;SDS011;7795;47.986;11.868;2023-07-20T07:31:56;7.77;;;2.20;;
15393;SDS011;7795;47.986;11.868;2023-07-20T07:34:22;3.70;;;1.87;;
15393;SDS011;7795;47.986;11.868;2023-07-20T07:36:47;4.03;;;1.90;;
15393;SDS011;7795;47.986;11.868;2023-07-20T07:39:13;4.07;;;1.97;;
15393;SDS011;7795;47.986;11.868;2023-07-20T07:41:39;4.57;;;1.83;;
15393;SDS011;7795;47.986;11.868;2023-07-20T07:44:05;4.23;;;1.87;;
15393;SDS011;7795;47.986;11.868;2023-07-20T07:46:31;7.70;;;2.27;;
15393;SDS011;7795;47.986;11.868;2023-07-20T07:48:58;1.87;;;1.30;;
15393;SDS011;7795;47.986;11.868;2023-07-20T07:51:24;21.57;;;3.63;;
15393;SDS011;7795;47.986;11.868;2023-07-20T07:53:52;5.70;;;2.23;;
15393;SDS011;7795;47.986;11.868;2023-07-20T07:56:17;5.60;;;1.97;;
15393;SDS011;7795;47.986;11.868;2023-07-20T07:58:47;4.60;;;2.00;;
15393;SDS011;7795;47.986;11.868;2023-07-20T08:01:13;2.10;;;1.30;;
15393;SDS011;7795;47.986;11.868;2023-07-20T08:03:39;3.73;;;1.57;;
15393;SDS011;7795;47.986;11.868;2023-07-20T08:06:06;5.03;;;1.93;;
15393;SDS011;7795;47.986;11.868;2023-07-20T08:08:32;2.33;;;1.30;;
15393;SDS011;7795;47.986;11.868;2023-07-20T08:10:58;3.20;;;1.57;;
15393;SDS011;7795;47.986;11.868;2023-07-20T08:13:25;2.27;;;1.43;;
15393;SDS011;7795;47.986;11.868;2023-07-20T08:15:51;3.27;;;1.70;;
15393;SDS011;7795;47.986;11.868;2023-07-20T08:18:18;4.33;;;1.63;;
15393;SDS011;7795;47.986;11.868;2023-07-20T08:20:44;5.60;;;2.53;;
15393;SDS011;7795;47.986;11.868;2023-07-20T08:23:11;5.53;;;2.00;;
15393;SDS011;7795;47.986;11.868;2023-07-20T08:25:37;3.97;;;1.80;;
15393;SDS011;7795;47.986;11.868;2023-07-20T08:28:04;2.37;;;1.60;;
15393;SDS011;7795;47.986;11.868;2023-07-20T08:30:37;4.30;;;1.97;;
15393;SDS011;7795;47.986;11.868;2023-07-20T08:33:05;2.77;;;1.60;;
15393;SDS011;7795;47.986;11.868;2023-07-20T08:35:30;2.37;;;1.67;;
15393;SDS011;7795;47.986;11.868;2023-07-20T08:37:56;2.00;;;1.50;;
15393;SDS011;7795;47.986;11.868;2023-07-20T08:40:23;3.80;;;1.80;;
15393;SDS011;7795;47.986;11.868;2023-07-20T08:42:49;6.33;;;2.20;;
15393;SDS011;7795;47.986;11.868;2023-07-20T08:45:15;2.23;;;1.40;;
15393;SDS011;7795;47.986;11.868;2023-07-20T08:47:42;5.93;;;1.97;;
15393;SDS011;7795;47.986;11.868;2023-07-20T08:50:10;2.50;;;1.50;;
15393;SDS011;7795;47.986;11.868;2023-07-20T08:52:37;2.93;;;1.23;;
15393;SDS011;7795;47.986;11.868;2023-07-20T08:55:03;5.23;;;1.60;;
15393;SDS011;7795;47.986;11.868;2023-07-20T08:57:32;3.10;;;1.80;;
15393;SDS011;7795;47.986;11.868;2023-07-20T08:59:58;5.77;;;1.70;;
15393;SDS011;7795;47.986;11.868;2023-07-20T09:02:25;5.00;;;1.77;;
15393;SDS011;7795;47.986;11.868;2023-07-20T09:04:52;2.57;;;1.87;;
15393;SDS011;7795;47.986;11.868;2023-07-20T09:07:18;3.60;;;1.80;;
15393;SDS011;7795;47.986;11.868;2023-07-20T09:09:45;8.17;;;2.07;;
15393;SDS011;7795;47.986;11.868;2023-07-20T09:12:14;3.87;;;1.90;;
15393;SDS011;7795;47.986;11.868;2023-07-20T09:14:43;3.57;;;1.93;;
15393;SDS011;7795;47.986;11.868;2023-07-20T09:17:12;5.10;;;1.90;;
15393;SDS011;7795;47.986;11.868;2023-07-20T09:19:38;5.80;;;2.17;;
15393;SDS011;7795;47.986;11.868;2023-07-20T09:22:05;3.50;;;1.83;;
15393;SDS011;7795;47.986;11.868;2023-07-20T09:24:31;4.63;;;1.50;;
15393;SDS011;7795;47.986;11.868;2023-07-20T09:26:57;3.47;;;1.60;;
15393;SDS011;7795;47.986;11.868;2023-07-20T09:29:28;3.67;;;1.90;;
15393;SDS011;7795;47.986;11.868;2023-07-20T09:32:00;4.07;;;1.73;;
15393;SDS011;7795;47.986;11.868;2023-07-20T09:34:26;3.53;;;2.20;;
15393;SDS011;7795;47.986;11.868;2023-07-20T09:36:53;1.73;;;1.33;;
15393;SDS011;7795;47.986;11.868;2023-07-20T09:39:19;2.88;;;1.90;;
15393;SDS011;7795;47.986;11.868;2023-07-20T09:41:45;2.53;;;1.42;;
15393;SDS011;7795;47.986;11.868;2023-07-20T09:44:11;3.03;;;1.90;;
15393;SDS011;7795;47.986;11.868;2023-07-20T09:46:43;4.63;;;1.53;;
15393;SDS011;7795;47.986;11.868;2023-07-20T09:49:11;2.60;;;1.70;;
15393;SDS011;7795;47.986;11.868;2023-07-20T09:51:37;2.33;;;1.83;;
15393;SDS011;7795;47.986;11.868;2023-07-20T09:54:03;2.10;;;1.43;;
15393;SDS011;7795;47.986;11.868;2023-07-20T09:56:29;2.97;;;1.70;;
15393;SDS011;7795;47.986;11.868;2023-07-20T09:58:56;5.80;;;1.70;;
15393;SDS011;7795;47.986;11.868;2023-07-20T10:01:21;4.75;;;1.48;;
15393;SDS011;7795;47.986;11.868;2023-07-20T10:03:48;2.13;;;1.33;;
15393;SDS011;7795;47.986;11.868;2023-07-20T10:06:24;1.80;;;1.23;;
15393;SDS011;7795;47.986;11.868;2023-07-20T10:08:52;3.00;;;1.50;;
15393;SDS011;7795;47.986;11.868;2023-07-20T10:11:18;2.57;;;1.50;;
15393;SDS011;7795;47.986;11.868;2023-07-20T10:13:46;4.17;;;1.50;;
15393;SDS011;7795;47.986;11.868;2023-07-20T10:16:18;3.38;;;1.85;;
15393;SDS011;7795;47.986;11.868;2023-07-20T10:18:51;2.37;;;1.40;;
15393;SDS011;7795;47.986;11.868;2023-07-20T10:21:26;3.40;;;1.70;;
15393;SDS011;7795;47.986;11.868;2023-07-20T10:23:54;2.67;;;1.60;;
15393;SDS011;7795;47.986;11.868;2023-07-20T10:26:21;3.53;;;1.65;;
15393;SDS011;7795;47.986;11.868;2023-07-20T10:28:46;3.30;;;1.80;;
15393;SDS011;7795;47.986;11.868;2023-07-20T10:31:12;2.20;;;1.20;;
15393;SDS011;7795;47.986;11.868;2023-07-20T10:33:39;1.90;;;1.33;;
15393;SDS011;7795;47.986;11.868;2023-07-20T10:36:05;2.70;;;1.60;;
15393;SDS011;7795;47.986;11.868;2023-07-20T10:38:39;4.50;;;2.00;;
15393;SDS011;7795;47.986;11.868;2023-07-20T10:41:17;1.88;;;1.40;;
15393;SDS011;7795;47.986;11.868;2023-07-20T10:43:44;4.22;;;1.85;;
15393;SDS011;7795;47.986;11.868;2023-07-20T10:46:11;2.55;;;1.58;;
15393;SDS011;7795;47.986;11.868;2023-07-20T10:48:58;3.88;;;1.67;;
15393;SDS011;7795;47.986;11.868;2023-07-20T10:51:24;2.92;;;1.38;;
15393;SDS011;7795;47.986;11.868;2023-07-20T10:53:51;1.98;;;1.45;;
15393;SDS011;7795;47.986;11.868;2023-07-20T10:56:20;5.70;;;2.10;;
15393;SDS011;7795;47.986;11.868;2023-07-20T10:58:47;2.15;;;1.63;;
15393;SDS011;7795;47.986;11.868;2023-07-20T11:01:13;4.35;;;1.77;;
15393;SDS011;7795;47.986;11.868;2023-07-20T11:03:40;3.83;;;1.70;;
15393;SDS011;7795;47.986;11.868;2023-07-20T11:09:04;2.50;;;1.33;;
15393;SDS011;7795;47.986;11.868;2023-07-20T11:11:40;2.35;;;1.50;;
15393;SDS011;7795;47.986;11.868;2023-07-20T11:14:08;3.15;;;1.80;;
15393;SDS011;7795;47.986;11.868;2023-07-20T11:16:39;2.35;;;1.60;;
15393;SDS011;7795;47.986;11.868;2023-07-20T11:19:13;4.25;;;1.90;;
15393;SDS011;7795;47.986;11.868;2023-07-20T11:21:41;3.33;;;1.73;;
15393;SDS011;7795;47.986;11.868;2023-07-20T11:24:09;2.30;;;1.67;;
15393;SDS011;7795;47.986;11.868;2023-07-20T11:26:40;2.10;;;1.60;;
15393;SDS011;7795;47.986;11.868;2023-07-20T11:29:07;5.20;;;1.98;;
15393;SDS011;7795;47.986;11.868;2023-07-20T11:31:34;5.00;;;2.03;;
15393;SDS011;7795;47.986;11.868;2023-07-20T11:34:00;3.08;;;1.60;;
15393;SDS011;7795;47.986;11.868;2023-07-20T11:36:26;2.30;;;1.70;;
15393;SDS011;7795;47.986;11.868;2023-07-20T11:38:52;4.05;;;2.22;;
15393;SDS011;7795;47.986;11.868;2023-07-20T11:41:20;6.68;;;2.15;;
15393;SDS011;7795;47.986;11.868;2023-07-20T11:43:46;4.07;;;1.95;;
15393;SDS011;7795;47.986;11.868;2023-07-20T11:46:13;3.20;;;1.80;;
15393;SDS011;7795;47.986;11.868;2023-07-20T11:48:38;2.05;;;1.58;;
15393;SDS011;7795;47.986;11.868;2023-07-20T11:51:05;6.78;;;2.00;;
15393;SDS011;7795;47.986;11.868;2023-07-20T11:53:30;4.55;;;1.58;;
15393;SDS011;7795;47.986;11.868;2023-07-20T11:55:58;6.18;;;1.90;;
15393;SDS011;7795;47.986;11.868;2023-07-20T11:58:27;4.20;;;1.88;;
15393;SDS011;7795;47.986;11.868;2023-07-20T12:00:53;1.90;;;1.63;;
15393;SDS011;7795;47.986;11.868;2023-07-20T12:03:20;1.92;;;1.40;;
15393;SDS011;7795;47.986;11.868;2023-07-20T12:05:46;3.50;;;1.73;;
15393;SDS011;7795;47.986;11.868;2023-07-20T12:08:12;2.15;;;1.60;;
15393;SDS011;7795;47.986;11.868;2023-07-20T12:10:39;4.63;;;1.60;;
15393;SDS011;7795;47.986;11.868;2023-07-20T12:13:09;4.40;;;1.75;;
15393;SDS011;7795;47.986;11.868;2023-07-20T12:15:37;2.75;;;1.83;;
15393;SDS011;7795;47.986;11.868;2023-07-20T12:18:03;3.78;;;1.83;;
15393;SDS011;7795;47.986;11.868;2023-07-20T12:20:29;1.98;;;1.60;;
15393;SDS011;7795;47.986;11.868;2023-07-20T12:22:56;2.95;;;2.00;;
15393;SDS011;7795;47.986;11.868;2023-07-20T12:25:32;2.33;;;1.75;;
15393;SDS011;7795;47.986;11.868;2023-07-20T12:28:08;2.03;;;1.58;;
15393;SDS011;7795;47.986;11.868;2023-07-20T12:30:37;2.17;;;1.35;;
15393;SDS011;7795;47.986;11.868;2023-07-20T12:33:03;2.97;;;1.60;;
15393;SDS011;7795;47.986;11.868;2023-07-20T12:35:29;2.30;;;1.50;;
15393;SDS011;7795;47.986;11.868;2023-07-20T12:37:55;2.15;;;1.58;;
15393;SDS011;7795;47.986;11.868;2023-07-20T12:40:21;3.53;;;1.38;;
15393;SDS011;7795;47.986;11.868;2023-07-20T12:42:47;2.42;;;1.52;;
15393;SDS011;7795;47.986;11.868;2023-07-20T12:45:13;2.17;;;1.70;;
15393;SDS011;7795;47.986;11.868;2023-07-20T12:47:40;3.42;;;1.50;;
15393;SDS011;7795;47.986;11.868;2023-07-20T12:50:07;2.88;;;1.63;;
15393;SDS011;7795;47.986;11.868;2023-07-20T12:52:35;3.28;;;1.52;;
15393;SDS011;7795;47.986;11.868;2023-07-20T12:55:01;4.78;;;1.38;;
15393;SDS011;7795;47.986;11.868;2023-07-20T12:57:27;2.28;;;1.50;;
15393;SDS011;7795;47.986;11.868;2023-07-20T12:59:53;3.53;;;1.40;;
15393;SDS011;7795;47.986;11.868;2023-07-20T13:02:18;2.72;;;1.50;;
15393;SDS011;7795;47.986;11.868;2023-07-20T13:04:45;3.47;;;1.60;;
15393;SDS011;7795;47.986;11.868;2023-07-20T13:07:11;2.47;;;1.55;;
15393;SDS011;7795;47.986;11.868;2023-07-20T13:09:37;2.55;;;1.27;;
15393;SDS011;7795;47.986;11.868;2023-07-20T13:12:03;2.75;;;1.38;;
15393;SDS011;7795;47.986;11.868;2023-07-20T13:14:29;3.25;;;1.60;;
15393;SDS011;7795;47.986;11.868;2023-07-20T13:16:55;1.60;;;1.30;;
15393;SDS011;7795;47.986;11.868;2023-07-20T13:19:21;4.18;;;1.33;;
15393;SDS011;7795;47.986;11.868;2023-07-20T13:21:49;3.10;;;1.60;;
15393;SDS011;7795;47.986;11.868;2023-07-20T13:24:14;2.15;;;1.58;;
15393;SDS011;7795;47.986;11.868;2023-07-20T13:26:40;2.75;;;1.70;;
15393;SDS011;7795;47.986;11.868;2023-07-20T13:29:06;2.05;;;1.40;;
15393;SDS011;7795;47.986;11.868;2023-07-20T13:31:32;2.42;;;1.50;;
15393;SDS011;7795;47.986;11.868;2023-07-20T13:33:58;2.45;;;1.33;;
15393;SDS011;7795;47.986;11.868;2023-07-20T13:36:23;4.13;;;1.60;;
15393;SDS011;7795;47.986;11.868;2023-07-20T13:38:51;1.85;;;1.50;;
15393;SDS011;7795;47.986;11.868;2023-07-20T13:41:16;2.17;;;1.52;;
15393;SDS011;7795;47.986;11.868;2023-07-20T13:43:42;2.42;;;1.42;;
15393;SDS011;7795;47.986;11.868;2023-07-20T13:46:08;3.95;;;1.75;;
15393;SDS011;7795;47.986;11.868;2023-07-20T13:48:33;1.85;;;1.20;;
15393;SDS011;7795;47.986;11.868;2023-07-20T13:50:59;2.45;;;1.50;;
15393;SDS011;7795;47.986;11.868;2023-07-20T13:53:25;1.98;;;1.55;;
15393;SDS011;7795;47.986;11.868;2023-07-20T13:55:54;3.47;;;1.42;;
15393;SDS011;7795;47.986;11.868;2023-07-20T13:58:19;1.52;;;1.20;;
15393;SDS011;7795;47.986;11.868;2023-07-20T14:00:45;3.92;;;1.30;;
15393;SDS011;7795;47.986;11.868;2023-07-20T14:03:11;2.22;;;1.52;;
15393;SDS011;7795;47.986;11.868;2023-07-20T14:05:37;7.47;;;1.52;;
15393;SDS011;7795;47.986;11.868;2023-07-20T14:08:03;3.33;;;1.70;;
15393;SDS011;7795;47.986;11.868;2023-07-20T14:10:28;1.63;;;1.40;;
15393;SDS011;7795;47.986;11.868;2023-07-20T14:12:55;4.72;;;1.50;;
15393;SDS011;7795;47.986;11.868;2023-07-20T14:15:21;3.55;;;1.40;;
15393;SDS011;7795;47.986;11.868;2023-07-20T14:17:47;2.78;;;1.52;;
15393;SDS011;7795;47.986;11.868;2023-07-20T14:20:13;3.75;;;1.60;;
15393;SDS011;7795;47.986;11.868;2023-07-20T14:22:39;1.85;;;1.25;;
15393;SDS011;7795;47.986;11.868;2023-07-20T14:25:07;3.92;;;1.60;;
15393;SDS011;7795;47.986;11.868;2023-07-20T14:27:33;3.83;;;1.50;;
15393;SDS011;7795;47.986;11.868;2023-07-20T14:30:00;2.35;;;1.42;;
15393;SDS011;7795;47.986;11.868;2023-07-20T14:32:26;1.52;;;1.38;;
15393;SDS011;7795;47.986;11.868;2023-07-20T14:34:52;2.78;;;1.20;;
15393;SDS011;7795;47.986;11.868;2023-07-20T14:37:18;2.20;;;1.52;;
15393;SDS011;7795;47.986;11.868;2023-07-20T14:39:43;5.18;;;1.70;;
15393;SDS011;7795;47.986;11.868;2023-07-20T14:42:09;2.20;;;1.63;;
15393;SDS011;7795;47.986;11.868;2023-07-20T14:44:35;1.92;;;1.40;;
15393;SDS011;7795;47.986;11.868;2023-07-20T14:47:02;2.30;;;1.30;;
15393;SDS011;7795;47.986;11.868;2023-07-20T14:49:28;1.70;;;1.60;;